AAL200 KELP-MMAA
Flight info
| Callsign | AAL200 |
|---|---|
| Flight time | 2h 42m |
| Altitude | 34000 |
| Route | NEVUE3 FST J42 ELQ/N0474F350 UJ27 AMULA UJ7 PERBU UJ27 LONVA UJ7 AVROD UJ27 ZIH UJ9 AVURO AVURO1B |
| Aircraft | B738/M-SDE2E3FGHIRWXY/LB1 |
Departure
| Time | 2026-05-07 22:43 |
|---|---|
| Airport | El Paso International Airport (KELP) |
Arrival
| Time | 2026-05-08 01:25 |
|---|---|
| Airport | General Juan N. Álvarez International Airport (MMAA) |
| Time | Latitude | Longitude | Altitude | Speed | Heading |
|---|---|---|---|---|---|
| 2026-05-07 22:14 | 31.83457 | -106.38764 | 3926 ft | 0 kts | 270° |
| 2026-05-07 22:25 | 31.83455 | -106.38773 | 3926 ft | 3 kts | 240° |
| 2026-05-07 22:26 | 31.83432 | -106.38754 | 3926 ft | 8 kts | 99° |
| 2026-05-07 22:26 | 31.83429 | -106.38633 | 3927 ft | 18 kts | 89° |
| 2026-05-07 22:26 | 31.83429 | -106.38473 | 3929 ft | 19 kts | 94° |
| 2026-05-07 22:26 | 31.83432 | -106.38294 | 3932 ft | 25 kts | 89° |
| 2026-05-07 22:27 | 31.83440 | -106.38080 | 3935 ft | 26 kts | 87° |
| 2026-05-07 22:27 | 31.83371 | -106.37987 | 3936 ft | 18 kts | 187° |
| 2026-05-07 22:27 | 31.83253 | -106.37996 | 3936 ft | 18 kts | 180° |
| 2026-05-07 22:27 | 31.83073 | -106.37991 | 3936 ft | 28 kts | 178° |
| 2026-05-07 22:28 | 31.82887 | -106.37983 | 3937 ft | 24 kts | 174° |
| 2026-05-07 22:28 | 31.82736 | -106.37981 | 3936 ft | 18 kts | 180° |
| 2026-05-07 22:28 | 31.82687 | -106.38090 | 3935 ft | 22 kts | 270° |
| 2026-05-07 22:28 | 31.82684 | -106.38384 | 3930 ft | 46 kts | 269° |
| 2026-05-07 22:29 | 31.82679 | -106.38777 | 3924 ft | 49 kts | 269° |
| 2026-05-07 22:29 | 31.82672 | -106.39171 | 3922 ft | 40 kts | 270° |
| 2026-05-07 22:29 | 31.82752 | -106.39333 | 3923 ft | 22 kts | 0° |
| 2026-05-07 22:29 | 31.82937 | -106.39337 | 3923 ft | 34 kts | 360° |
| 2026-05-07 22:30 | 31.83178 | -106.39341 | 3924 ft | 23 kts | 355° |
| 2026-05-07 22:30 | 31.83248 | -106.39459 | 3924 ft | 20 kts | 270° |
| 2026-05-07 22:30 | 31.83178 | -106.39660 | 3925 ft | 29 kts | 224° |
| 2026-05-07 22:30 | 31.83021 | -106.39831 | 3924 ft | 39 kts | 223° |
| 2026-05-07 22:31 | 31.82803 | -106.40075 | 3921 ft | 44 kts | 224° |
| 2026-05-07 22:31 | 31.82687 | -106.40350 | 3916 ft | 36 kts | 265° |
| 2026-05-07 22:31 | 31.82681 | -106.40656 | 3911 ft | 39 kts | 269° |
| 2026-05-07 22:31 | 31.82676 | -106.40973 | 3904 ft | 37 kts | 273° |
| 2026-05-07 22:32 | 31.82674 | -106.41273 | 3898 ft | 36 kts | 266° |
| 2026-05-07 22:32 | 31.82671 | -106.41357 | 3895 ft | 0 kts | 272° |
| 2026-05-07 22:32 | 31.83457 | -106.38763 | 3926 ft | 0 kts | 270° |
| 2026-05-07 22:33 | 31.80099 | -106.39641 | 3925 ft | 0 kts | 211° |
| 2026-05-07 22:38 | 31.80106 | -106.39635 | 3925 ft | 2 kts | 211° |
| 2026-05-07 22:39 | 31.80118 | -106.39627 | 3925 ft | 2 kts | 211° |
| 2026-05-07 22:39 | 31.80131 | -106.39618 | 3925 ft | 2 kts | 211° |
| 2026-05-07 22:39 | 31.80145 | -106.39609 | 3925 ft | 2 kts | 230° |
| 2026-05-07 22:39 | 31.80150 | -106.39594 | 3925 ft | 0 kts | 267° |
| 2026-05-07 22:40 | 31.80149 | -106.39587 | 3925 ft | 1 kts | 273° |
| 2026-05-07 22:40 | 31.80149 | -106.39585 | 3925 ft | 0 kts | 272° |
| 2026-05-07 22:41 | 31.80149 | -106.39587 | 3925 ft | 1 kts | 272° |
| 2026-05-07 22:41 | 31.80153 | -106.39642 | 3924 ft | 14 kts | 273° |
| 2026-05-07 22:41 | 31.80133 | -106.39777 | 3923 ft | 20 kts | 234° |
| 2026-05-07 22:42 | 31.80102 | -106.39916 | 3922 ft | 18 kts | 309° |
| 2026-05-07 22:42 | 31.80213 | -106.39897 | 3923 ft | 22 kts | 52° |
| 2026-05-07 22:42 | 31.80471 | -106.39527 | 3926 ft | 103 kts | 50° |
| 2026-05-07 22:42 | 31.81111 | -106.38643 | 3935 ft | 178 kts | 49° |
| 2026-05-07 22:43 | 31.81993 | -106.37524 | 4704 ft | 187 kts | 47° |
| 2026-05-07 22:43 | 31.82782 | -106.36406 | 5794 ft | 181 kts | 58° |
| 2026-05-07 22:43 | 31.83231 | -106.34999 | 6336 ft | 198 kts | 91° |
| 2026-05-07 22:43 | 31.82727 | -106.33472 | 6919 ft | 216 kts | 133° |
| 2026-05-07 22:44 | 31.81592 | -106.32229 | 7597 ft | 233 kts | 134° |
| 2026-05-07 22:44 | 31.80505 | -106.30783 | 8327 ft | 248 kts | 129° |
| 2026-05-07 22:44 | 31.79390 | -106.29157 | 9065 ft | 263 kts | 129° |
| 2026-05-07 22:44 | 31.78196 | -106.27477 | 9782 ft | 278 kts | 130° |
| 2026-05-07 22:45 | 31.76901 | -106.25729 | 10563 ft | 292 kts | 132° |
| 2026-05-07 22:45 | 31.75534 | -106.23920 | 11282 ft | 306 kts | 133° |
| 2026-05-07 22:45 | 31.74065 | -106.21986 | 11956 ft | 323 kts | 133° |
| 2026-05-07 22:45 | 31.72554 | -106.19994 | 12657 ft | 337 kts | 134° |
| 2026-05-07 22:46 | 31.70949 | -106.17879 | 13294 ft | 354 kts | 134° |
| 2026-05-07 22:46 | 31.69294 | -106.15695 | 13907 ft | 370 kts | 134° |
| 2026-05-07 22:46 | 31.67539 | -106.13382 | 14444 ft | 387 kts | 134° |
| 2026-05-07 22:46 | 31.65720 | -106.10983 | 14935 ft | 404 kts | 134° |
| 2026-05-07 22:47 | 31.63820 | -106.08478 | 15434 ft | 419 kts | 134° |
| 2026-05-07 22:47 | 31.61883 | -106.05923 | 16171 ft | 427 kts | 134° |
| 2026-05-07 22:47 | 31.59890 | -106.03293 | 16973 ft | 433 kts | 134° |
| 2026-05-07 22:47 | 31.57929 | -106.00612 | 17757 ft | 440 kts | 131° |
| 2026-05-07 22:48 | 31.56066 | -105.97742 | 18462 ft | 449 kts | 129° |
| 2026-05-07 22:48 | 31.54259 | -105.94696 | 19264 ft | 455 kts | 127° |
| 2026-05-07 22:48 | 31.52508 | -105.91624 | 20054 ft | 461 kts | 127° |
| 2026-05-07 22:48 | 31.50741 | -105.88493 | 20836 ft | 466 kts | 128° |
| 2026-05-07 22:49 | 31.49072 | -105.85220 | 21603 ft | 475 kts | 122° |
| 2026-05-07 22:49 | 31.47719 | -105.81645 | 22280 ft | 487 kts | 115° |
| 2026-05-07 22:49 | 31.46679 | -105.77834 | 22954 ft | 497 kts | 111° |
| 2026-05-07 22:49 | 31.45809 | -105.73897 | 23593 ft | 505 kts | 108° |
| 2026-05-07 22:50 | 31.45051 | -105.69912 | 24329 ft | 510 kts | 107° |
| 2026-05-07 22:50 | 31.44342 | -105.65797 | 24950 ft | 516 kts | 107° |
| 2026-05-07 22:50 | 31.43662 | -105.61666 | 25393 ft | 524 kts | 107° |
| 2026-05-07 22:50 | 31.42982 | -105.57452 | 26154 ft | 524 kts | 107° |
| 2026-05-07 22:51 | 31.42320 | -105.53333 | 27135 ft | 519 kts | 107° |
| 2026-05-07 22:51 | 31.41642 | -105.49187 | 27968 ft | 516 kts | 108° |
| 2026-05-07 22:51 | 31.40954 | -105.45073 | 28620 ft | 517 kts | 109° |
| 2026-05-07 22:51 | 31.40257 | -105.40981 | 29300 ft | 517 kts | 109° |
| 2026-05-07 22:52 | 31.39549 | -105.36884 | 30040 ft | 515 kts | 110° |
| 2026-05-07 22:52 | 31.38841 | -105.32810 | 30778 ft | 513 kts | 110° |
| 2026-05-07 22:52 | 31.38124 | -105.28724 | 31400 ft | 512 kts | 111° |
| 2026-05-07 22:52 | 31.37408 | -105.24663 | 32000 ft | 512 kts | 111° |
| 2026-05-07 22:53 | 31.36691 | -105.20614 | 32593 ft | 510 kts | 111° |
| 2026-05-07 22:53 | 31.35968 | -105.16549 | 33010 ft | 514 kts | 111° |
| 2026-05-07 22:53 | 31.35238 | -105.12456 | 33533 ft | 514 kts | 111° |
| 2026-05-07 22:53 | 31.34517 | -105.08404 | 34066 ft | 514 kts | 111° |
| 2026-05-07 22:54 | 31.33785 | -105.04300 | 34156 ft | 515 kts | 111° |
| 2026-05-07 22:54 | 31.32343 | -104.96211 | 34156 ft | 514 kts | 111° |
| 2026-05-07 22:55 | 31.30889 | -104.88063 | 34145 ft | 510 kts | 111° |
| 2026-05-07 22:55 | 31.29440 | -104.79979 | 34131 ft | 509 kts | 111° |
| 2026-05-07 22:56 | 31.27982 | -104.71894 | 34118 ft | 509 kts | 111° |
| 2026-05-07 22:56 | 31.26514 | -104.63805 | 34126 ft | 513 kts | 111° |
| 2026-05-07 22:57 | 31.25043 | -104.55717 | 34124 ft | 510 kts | 111° |
| 2026-05-07 22:57 | 31.23567 | -104.47614 | 34122 ft | 512 kts | 111° |
| 2026-05-07 22:58 | 31.22085 | -104.39516 | 34106 ft | 509 kts | 111° |
| 2026-05-07 22:58 | 31.20608 | -104.31484 | 34109 ft | 510 kts | 111° |
| 2026-05-07 22:58 | 31.19581 | -104.27581 | 34097 ft | 489 kts | 126° |
| 2026-05-07 22:59 | 31.17778 | -104.24430 | 34104 ft | 459 kts | 145° |
| 2026-05-07 22:59 | 31.15303 | -104.22255 | 34101 ft | 433 kts | 163° |
| 2026-05-07 22:59 | 31.12535 | -104.21086 | 34106 ft | 412 kts | 176° |
| 2026-05-07 23:00 | 31.06964 | -104.20263 | 34106 ft | 403 kts | 185° |
| 2026-05-07 23:00 | 31.01415 | -104.20171 | 34112 ft | 395 kts | 189° |
| 2026-05-07 23:01 | 30.95972 | -104.20483 | 34119 ft | 394 kts | 191° |
| 2026-05-07 23:01 | 30.90501 | -104.20871 | 34122 ft | 395 kts | 191° |
| 2026-05-07 23:02 | 30.85034 | -104.21240 | 34125 ft | 392 kts | 191° |
| 2026-05-07 23:02 | 30.79563 | -104.21592 | 34132 ft | 394 kts | 191° |
| 2026-05-07 23:03 | 30.74121 | -104.21932 | 34133 ft | 393 kts | 191° |
| 2026-05-07 23:03 | 30.68658 | -104.22271 | 34135 ft | 393 kts | 191° |
| 2026-05-07 23:04 | 30.63229 | -104.22605 | 34136 ft | 392 kts | 191° |
| 2026-05-07 23:04 | 30.57766 | -104.22943 | 34136 ft | 390 kts | 190° |
| 2026-05-07 23:05 | 30.52381 | -104.23272 | 34132 ft | 388 kts | 191° |
| 2026-05-07 23:05 | 30.46960 | -104.23608 | 34130 ft | 393 kts | 191° |
| 2026-05-07 23:06 | 30.41520 | -104.23940 | 34127 ft | 389 kts | 191° |
| 2026-05-07 23:06 | 30.36137 | -104.24271 | 34125 ft | 390 kts | 191° |
| 2026-05-07 23:07 | 30.30700 | -104.24606 | 34118 ft | 389 kts | 191° |
| 2026-05-07 23:07 | 30.25249 | -104.24941 | 34119 ft | 390 kts | 191° |
| 2026-05-07 23:08 | 30.19827 | -104.25268 | 34114 ft | 391 kts | 191° |
| 2026-05-07 23:08 | 30.14440 | -104.25595 | 34118 ft | 390 kts | 191° |
| 2026-05-07 23:09 | 30.09029 | -104.25926 | 34118 ft | 391 kts | 191° |
| 2026-05-07 23:09 | 30.03610 | -104.26257 | 34117 ft | 387 kts | 191° |
| 2026-05-07 23:10 | 29.98230 | -104.26582 | 34121 ft | 386 kts | 191° |
| 2026-05-07 23:10 | 29.92795 | -104.26916 | 34113 ft | 389 kts | 191° |
| 2026-05-07 23:11 | 29.87408 | -104.27242 | 34100 ft | 390 kts | 191° |
| 2026-05-07 23:11 | 29.82021 | -104.27567 | 34080 ft | 386 kts | 191° |
| 2026-05-07 23:12 | 29.76613 | -104.27898 | 34070 ft | 391 kts | 191° |
| 2026-05-07 23:12 | 29.71217 | -104.28226 | 34040 ft | 387 kts | 191° |
| 2026-05-07 23:13 | 29.65811 | -104.28554 | 34022 ft | 392 kts | 192° |
| 2026-05-07 23:13 | 29.60404 | -104.28879 | 34013 ft | 386 kts | 191° |
| 2026-05-07 23:14 | 29.55009 | -104.29244 | 34004 ft | 384 kts | 193° |
| 2026-05-07 23:14 | 29.49797 | -104.30347 | 34001 ft | 378 kts | 202° |
| 2026-05-07 23:15 | 29.44849 | -104.32361 | 34002 ft | 373 kts | 207° |
| 2026-05-07 23:15 | 29.40031 | -104.34591 | 34028 ft | 374 kts | 207° |
| 2026-05-07 23:16 | 29.35213 | -104.36831 | 34039 ft | 374 kts | 206° |
| 2026-05-07 23:16 | 29.30366 | -104.39060 | 34061 ft | 376 kts | 207° |
| 2026-05-07 23:17 | 29.25512 | -104.41270 | 34089 ft | 375 kts | 207° |
| 2026-05-07 23:17 | 29.20679 | -104.43467 | 34101 ft | 372 kts | 206° |
| 2026-05-07 23:18 | 29.15831 | -104.45667 | 34096 ft | 374 kts | 206° |
| 2026-05-07 23:18 | 29.10961 | -104.47877 | 34098 ft | 377 kts | 206° |
| 2026-05-07 23:19 | 29.06098 | -104.50081 | 34081 ft | 375 kts | 206° |
| 2026-05-07 23:19 | 29.01246 | -104.52276 | 34088 ft | 375 kts | 206° |
| 2026-05-07 23:20 | 28.96367 | -104.54479 | 34083 ft | 377 kts | 207° |
| 2026-05-07 23:20 | 28.91515 | -104.56667 | 34070 ft | 374 kts | 206° |
| 2026-05-07 23:21 | 28.86630 | -104.58872 | 34077 ft | 381 kts | 206° |
| 2026-05-07 23:21 | 28.81780 | -104.61053 | 34068 ft | 376 kts | 207° |
| 2026-05-07 23:22 | 28.76882 | -104.63257 | 34066 ft | 379 kts | 207° |
| 2026-05-07 23:22 | 28.71996 | -104.65450 | 34061 ft | 378 kts | 206° |
| 2026-05-07 23:23 | 28.67096 | -104.67648 | 34064 ft | 380 kts | 206° |
| 2026-05-07 23:23 | 28.62178 | -104.69856 | 34074 ft | 379 kts | 206° |
| 2026-05-07 23:24 | 28.57269 | -104.72052 | 34087 ft | 377 kts | 206° |
| 2026-05-07 23:24 | 28.52382 | -104.74242 | 34096 ft | 380 kts | 206° |
| 2026-05-07 23:25 | 28.47458 | -104.76444 | 34102 ft | 378 kts | 207° |
| 2026-05-07 23:25 | 28.42521 | -104.78649 | 34106 ft | 379 kts | 207° |
| 2026-05-07 23:26 | 28.37605 | -104.80843 | 34100 ft | 381 kts | 206° |
| 2026-05-07 23:26 | 28.32683 | -104.83036 | 34102 ft | 381 kts | 206° |
| 2026-05-07 23:27 | 28.25308 | -104.86324 | 34098 ft | 379 kts | 206° |
| 2026-05-07 23:27 | 28.20387 | -104.88511 | 34096 ft | 378 kts | 206° |
| 2026-05-07 23:28 | 28.15452 | -104.90702 | 34096 ft | 380 kts | 206° |
| 2026-05-07 23:28 | 28.10532 | -104.92888 | 34081 ft | 379 kts | 205° |
| 2026-05-07 23:29 | 28.05593 | -104.95079 | 34084 ft | 377 kts | 205° |
| 2026-05-07 23:29 | 28.00677 | -104.97257 | 34082 ft | 382 kts | 205° |
| 2026-05-07 23:30 | 27.95742 | -104.99441 | 34077 ft | 380 kts | 206° |
| 2026-05-07 23:30 | 27.90826 | -105.01617 | 34085 ft | 378 kts | 205° |
| 2026-05-07 23:31 | 27.85893 | -105.03796 | 34090 ft | 379 kts | 206° |
| 2026-05-07 23:31 | 27.80943 | -105.05981 | 34105 ft | 384 kts | 206° |
| 2026-05-07 23:32 | 27.75986 | -105.08165 | 34112 ft | 384 kts | 206° |
| 2026-05-07 23:32 | 27.70975 | -105.10370 | 34109 ft | 384 kts | 206° |
| 2026-05-07 23:33 | 27.66038 | -105.12538 | 34108 ft | 382 kts | 206° |
| 2026-05-07 23:33 | 27.61037 | -105.14739 | 34110 ft | 386 kts | 206° |
| 2026-05-07 23:34 | 27.56052 | -105.16924 | 34106 ft | 385 kts | 206° |
| 2026-05-07 23:34 | 27.51038 | -105.19121 | 34114 ft | 385 kts | 206° |
| 2026-05-07 23:35 | 27.46058 | -105.21302 | 34116 ft | 386 kts | 206° |
| 2026-05-07 23:35 | 27.41037 | -105.23502 | 34127 ft | 386 kts | 206° |
| 2026-05-07 23:36 | 27.36007 | -105.25703 | 34131 ft | 385 kts | 206° |
| 2026-05-07 23:36 | 27.31005 | -105.27889 | 34140 ft | 389 kts | 206° |
| 2026-05-07 23:37 | 27.25978 | -105.30086 | 34137 ft | 388 kts | 206° |
| 2026-05-07 23:37 | 27.20927 | -105.32289 | 34149 ft | 391 kts | 206° |
| 2026-05-07 23:38 | 27.15865 | -105.34492 | 34150 ft | 391 kts | 206° |
| 2026-05-07 23:38 | 27.10806 | -105.36692 | 34146 ft | 389 kts | 206° |
| 2026-05-07 23:39 | 27.05762 | -105.38885 | 34159 ft | 393 kts | 206° |
| 2026-05-07 23:39 | 27.00586 | -105.40981 | 34174 ft | 395 kts | 202° |
| 2026-05-07 23:40 | 26.95063 | -105.41711 | 34187 ft | 409 kts | 186° |
| 2026-05-07 23:40 | 26.92204 | -105.41362 | 34199 ft | 421 kts | 179° |
| 2026-05-07 23:40 | 26.89348 | -105.40672 | 34211 ft | 426 kts | 175° |
| 2026-05-07 23:41 | 26.83615 | -105.38866 | 34212 ft | 428 kts | 172° |
| 2026-05-07 23:41 | 26.77912 | -105.36916 | 34207 ft | 425 kts | 172° |
| 2026-05-07 23:42 | 26.72229 | -105.34985 | 34240 ft | 428 kts | 172° |
| 2026-05-07 23:42 | 26.66535 | -105.33080 | 34231 ft | 425 kts | 173° |
| 2026-05-07 23:43 | 26.60857 | -105.31203 | 34236 ft | 428 kts | 173° |
| 2026-05-07 23:43 | 26.55150 | -105.29324 | 34241 ft | 427 kts | 173° |
| 2026-05-07 23:44 | 26.49417 | -105.27443 | 34258 ft | 430 kts | 173° |
| 2026-05-07 23:44 | 26.43698 | -105.25566 | 34258 ft | 428 kts | 173° |
| 2026-05-07 23:45 | 26.38036 | -105.23708 | 34270 ft | 426 kts | 173° |
| 2026-05-07 23:45 | 26.32253 | -105.21818 | 34289 ft | 430 kts | 173° |
| 2026-05-07 23:46 | 26.26560 | -105.19950 | 34279 ft | 427 kts | 173° |
| 2026-05-07 23:46 | 26.20856 | -105.18085 | 34292 ft | 429 kts | 173° |
| 2026-05-07 23:47 | 26.15104 | -105.16209 | 34292 ft | 429 kts | 173° |
| 2026-05-07 23:47 | 26.09399 | -105.14345 | 34297 ft | 429 kts | 174° |
| 2026-05-07 23:48 | 26.03620 | -105.12466 | 34293 ft | 430 kts | 173° |
| 2026-05-07 23:48 | 25.97948 | -105.10616 | 34310 ft | 426 kts | 173° |
| 2026-05-07 23:49 | 25.92225 | -105.08755 | 34308 ft | 429 kts | 173° |
| 2026-05-07 23:49 | 25.86509 | -105.06902 | 34293 ft | 427 kts | 173° |
| 2026-05-07 23:50 | 25.80765 | -105.05037 | 34281 ft | 431 kts | 173° |
| 2026-05-07 23:50 | 25.75069 | -105.03190 | 34269 ft | 427 kts | 173° |
| 2026-05-07 23:51 | 25.69337 | -105.01338 | 34277 ft | 431 kts | 173° |
| 2026-05-07 23:51 | 25.63589 | -104.99480 | 34258 ft | 433 kts | 173° |
| 2026-05-07 23:52 | 25.57812 | -104.97611 | 34265 ft | 432 kts | 173° |
| 2026-05-07 23:52 | 25.52009 | -104.95738 | 34268 ft | 431 kts | 173° |
| 2026-05-07 23:53 | 25.46286 | -104.93884 | 34277 ft | 431 kts | 173° |
| 2026-05-07 23:53 | 25.40487 | -104.92020 | 34287 ft | 432 kts | 173° |
| 2026-05-07 23:54 | 25.34693 | -104.90154 | 34298 ft | 432 kts | 173° |
| 2026-05-07 23:54 | 25.28927 | -104.88298 | 34308 ft | 432 kts | 173° |
| 2026-05-07 23:55 | 25.23162 | -104.86437 | 34312 ft | 433 kts | 173° |
| 2026-05-07 23:55 | 25.17375 | -104.84583 | 34309 ft | 434 kts | 173° |
| 2026-05-07 23:56 | 25.11592 | -104.82735 | 34321 ft | 432 kts | 173° |
| 2026-05-07 23:56 | 25.05757 | -104.80878 | 34326 ft | 433 kts | 172° |
| 2026-05-07 23:57 | 24.99926 | -104.79019 | 34339 ft | 436 kts | 172° |
| 2026-05-07 23:57 | 24.94146 | -104.77174 | 34331 ft | 433 kts | 172° |
| 2026-05-07 23:58 | 24.88338 | -104.75324 | 34336 ft | 438 kts | 172° |
| 2026-05-07 23:58 | 24.82529 | -104.73466 | 34333 ft | 434 kts | 173° |
| 2026-05-07 23:59 | 24.76658 | -104.71596 | 34338 ft | 437 kts | 172° |
| 2026-05-07 23:59 | 24.70803 | -104.69730 | 34343 ft | 437 kts | 172° |
| 2026-05-08 00:00 | 24.65014 | -104.67883 | 34343 ft | 435 kts | 172° |
| 2026-05-08 00:00 | 24.59170 | -104.66024 | 34345 ft | 436 kts | 172° |
| 2026-05-08 00:01 | 24.53328 | -104.64168 | 34369 ft | 435 kts | 172° |
| 2026-05-08 00:01 | 24.47488 | -104.62318 | 34355 ft | 437 kts | 172° |
| 2026-05-08 00:02 | 24.41694 | -104.60477 | 34342 ft | 436 kts | 172° |
| 2026-05-08 00:02 | 24.35835 | -104.58623 | 34335 ft | 437 kts | 172° |
| 2026-05-08 00:03 | 24.29973 | -104.56767 | 34302 ft | 436 kts | 172° |
| 2026-05-08 00:03 | 24.24148 | -104.54927 | 34281 ft | 439 kts | 172° |
| 2026-05-08 00:04 | 24.18271 | -104.53069 | 34238 ft | 437 kts | 172° |
| 2026-05-08 00:04 | 24.12419 | -104.51216 | 34221 ft | 439 kts | 171° |
| 2026-05-08 00:05 | 24.06563 | -104.49249 | 34213 ft | 442 kts | 170° |
| 2026-05-08 00:05 | 24.00723 | -104.47227 | 34266 ft | 440 kts | 170° |
| 2026-05-08 00:06 | 23.94866 | -104.45203 | 34308 ft | 443 kts | 170° |
| 2026-05-08 00:06 | 23.89024 | -104.43192 | 34326 ft | 442 kts | 170° |
| 2026-05-08 00:07 | 23.83134 | -104.41176 | 34355 ft | 441 kts | 170° |
| 2026-05-08 00:07 | 23.77260 | -104.39170 | 34367 ft | 442 kts | 170° |
| 2026-05-08 00:08 | 23.71416 | -104.37182 | 34353 ft | 442 kts | 170° |
| 2026-05-08 00:08 | 23.65533 | -104.35179 | 34368 ft | 441 kts | 170° |
| 2026-05-08 00:09 | 23.59686 | -104.33190 | 34379 ft | 442 kts | 170° |
| 2026-05-08 00:09 | 23.53790 | -104.31190 | 34409 ft | 443 kts | 170° |
| 2026-05-08 00:10 | 23.47923 | -104.29199 | 34420 ft | 442 kts | 170° |
| 2026-05-08 00:10 | 23.42034 | -104.27203 | 34421 ft | 442 kts | 170° |
| 2026-05-08 00:11 | 23.36149 | -104.25210 | 34417 ft | 444 kts | 170° |
| 2026-05-08 00:11 | 23.30243 | -104.23211 | 34414 ft | 442 kts | 170° |
| 2026-05-08 00:12 | 23.24365 | -104.21227 | 34412 ft | 445 kts | 169° |
| 2026-05-08 00:12 | 23.18468 | -104.19237 | 34414 ft | 442 kts | 169° |
| 2026-05-08 00:13 | 23.12556 | -104.17244 | 34421 ft | 444 kts | 169° |
| 2026-05-08 00:13 | 23.06650 | -104.15254 | 34415 ft | 443 kts | 170° |
| 2026-05-08 00:14 | 23.00749 | -104.13269 | 34404 ft | 445 kts | 169° |
| 2026-05-08 00:14 | 22.94869 | -104.11293 | 34377 ft | 444 kts | 169° |
| 2026-05-08 00:15 | 22.88954 | -104.09306 | 34343 ft | 445 kts | 169° |
| 2026-05-08 00:15 | 22.83015 | -104.07313 | 34300 ft | 444 kts | 169° |
| 2026-05-08 00:16 | 22.77062 | -104.05318 | 34278 ft | 449 kts | 169° |
| 2026-05-08 00:16 | 22.71123 | -104.03329 | 34256 ft | 447 kts | 169° |
| 2026-05-08 00:17 | 22.65137 | -104.01323 | 34242 ft | 448 kts | 169° |
| 2026-05-08 00:17 | 22.59189 | -103.99332 | 34233 ft | 448 kts | 169° |
| 2026-05-08 00:18 | 22.53243 | -103.97343 | 34248 ft | 447 kts | 169° |
| 2026-05-08 00:18 | 22.47305 | -103.95362 | 34257 ft | 448 kts | 169° |
| 2026-05-08 00:19 | 22.41322 | -103.93367 | 34267 ft | 449 kts | 169° |
| 2026-05-08 00:19 | 22.35380 | -103.91386 | 34274 ft | 449 kts | 169° |
| 2026-05-08 00:20 | 22.29388 | -103.89391 | 34273 ft | 449 kts | 169° |
| 2026-05-08 00:20 | 22.23430 | -103.87408 | 34268 ft | 449 kts | 169° |
| 2026-05-08 00:21 | 22.17466 | -103.85423 | 34257 ft | 449 kts | 169° |
| 2026-05-08 00:21 | 22.11453 | -103.83425 | 34241 ft | 450 kts | 168° |
| 2026-05-08 00:22 | 22.05451 | -103.81430 | 34222 ft | 450 kts | 169° |
| 2026-05-08 00:22 | 21.99493 | -103.79453 | 34193 ft | 450 kts | 169° |
| 2026-05-08 00:23 | 21.93495 | -103.77466 | 34172 ft | 451 kts | 168° |
| 2026-05-08 00:23 | 21.87468 | -103.75470 | 34150 ft | 451 kts | 168° |
| 2026-05-08 00:24 | 21.81451 | -103.73479 | 34143 ft | 452 kts | 168° |
| 2026-05-08 00:24 | 21.75461 | -103.71498 | 34150 ft | 451 kts | 168° |
| 2026-05-08 00:25 | 21.69466 | -103.69518 | 34187 ft | 451 kts | 168° |
| 2026-05-08 00:25 | 21.63444 | -103.67531 | 34230 ft | 452 kts | 168° |
| 2026-05-08 00:26 | 21.57415 | -103.65544 | 34253 ft | 452 kts | 168° |
| 2026-05-08 00:26 | 21.51372 | -103.63555 | 34277 ft | 453 kts | 168° |
| 2026-05-08 00:27 | 21.45360 | -103.61577 | 34289 ft | 452 kts | 168° |
| 2026-05-08 00:27 | 21.39329 | -103.59589 | 34282 ft | 452 kts | 168° |
| 2026-05-08 00:28 | 21.33301 | -103.57602 | 34267 ft | 454 kts | 167° |
| 2026-05-08 00:28 | 21.27287 | -103.55624 | 34254 ft | 453 kts | 167° |
| 2026-05-08 00:29 | 21.21221 | -103.53638 | 34233 ft | 454 kts | 167° |
| 2026-05-08 00:29 | 21.15184 | -103.51662 | 34212 ft | 454 kts | 167° |
| 2026-05-08 00:30 | 21.09153 | -103.49692 | 34183 ft | 455 kts | 167° |
| 2026-05-08 00:30 | 21.03073 | -103.47706 | 34168 ft | 455 kts | 167° |
| 2026-05-08 00:31 | 20.97045 | -103.45738 | 34166 ft | 454 kts | 167° |
| 2026-05-08 00:31 | 20.90972 | -103.43758 | 34192 ft | 454 kts | 167° |
| 2026-05-08 00:32 | 20.84907 | -103.41782 | 34210 ft | 455 kts | 167° |
| 2026-05-08 00:32 | 20.78867 | -103.39815 | 34228 ft | 454 kts | 167° |
| 2026-05-08 00:33 | 20.72827 | -103.37846 | 34213 ft | 455 kts | 167° |
| 2026-05-08 00:33 | 20.66756 | -103.35869 | 34194 ft | 456 kts | 167° |
| 2026-05-08 00:34 | 20.60675 | -103.33890 | 34185 ft | 455 kts | 167° |
| 2026-05-08 00:34 | 20.54653 | -103.31847 | 34172 ft | 457 kts | 164° |
| 2026-05-08 00:35 | 20.48833 | -103.29006 | 34167 ft | 462 kts | 155° |
| 2026-05-08 00:35 | 20.43280 | -103.25586 | 34183 ft | 462 kts | 153° |
| 2026-05-08 00:36 | 20.37763 | -103.21991 | 34196 ft | 463 kts | 152° |
| 2026-05-08 00:36 | 20.32279 | -103.18412 | 34222 ft | 463 kts | 152° |
| 2026-05-08 00:37 | 20.26751 | -103.14838 | 34233 ft | 463 kts | 152° |
| 2026-05-08 00:38 | 20.18482 | -103.09538 | 34275 ft | 463 kts | 153° |
| 2026-05-08 00:38 | 20.12963 | -103.06012 | 34299 ft | 463 kts | 153° |
| 2026-05-08 00:39 | 20.07427 | -103.02477 | 34317 ft | 462 kts | 153° |
| 2026-05-08 00:39 | 20.01903 | -102.98953 | 34343 ft | 462 kts | 153° |
| 2026-05-08 00:40 | 19.96391 | -102.95441 | 34329 ft | 463 kts | 153° |
| 2026-05-08 00:40 | 19.90895 | -102.91941 | 34301 ft | 461 kts | 152° |
| 2026-05-08 00:41 | 19.85371 | -102.88432 | 34288 ft | 463 kts | 152° |
| 2026-05-08 00:41 | 19.79846 | -102.84923 | 34297 ft | 462 kts | 152° |
| 2026-05-08 00:42 | 19.74337 | -102.81427 | 34302 ft | 462 kts | 152° |
| 2026-05-08 00:42 | 19.68793 | -102.77912 | 34271 ft | 462 kts | 152° |
| 2026-05-08 00:43 | 19.63287 | -102.74424 | 34228 ft | 461 kts | 152° |
| 2026-05-08 00:43 | 19.57772 | -102.70935 | 34163 ft | 461 kts | 152° |
| 2026-05-08 00:44 | 19.52281 | -102.67465 | 34103 ft | 460 kts | 152° |
| 2026-05-08 00:44 | 19.46765 | -102.63982 | 34071 ft | 461 kts | 152° |
| 2026-05-08 00:45 | 19.41266 | -102.60512 | 34061 ft | 460 kts | 152° |
| 2026-05-08 00:45 | 19.35765 | -102.57041 | 34037 ft | 460 kts | 152° |
| 2026-05-08 00:46 | 19.30273 | -102.53580 | 34021 ft | 460 kts | 152° |
| 2026-05-08 00:46 | 19.24754 | -102.50101 | 34020 ft | 460 kts | 152° |
| 2026-05-08 00:47 | 19.19287 | -102.46659 | 34001 ft | 459 kts | 152° |
| 2026-05-08 00:47 | 19.13786 | -102.43198 | 33979 ft | 458 kts | 152° |
| 2026-05-08 00:48 | 19.08284 | -102.39738 | 33944 ft | 460 kts | 152° |
| 2026-05-08 00:48 | 19.02796 | -102.36292 | 33897 ft | 459 kts | 152° |
| 2026-05-08 00:49 | 18.97310 | -102.32848 | 33867 ft | 458 kts | 152° |
| 2026-05-08 00:49 | 18.91829 | -102.29411 | 33868 ft | 459 kts | 152° |
| 2026-05-08 00:50 | 18.86316 | -102.25955 | 33861 ft | 459 kts | 152° |
| 2026-05-08 00:50 | 18.80851 | -102.22533 | 33843 ft | 459 kts | 152° |
| 2026-05-08 00:51 | 18.75357 | -102.19096 | 33848 ft | 459 kts | 152° |
| 2026-05-08 00:51 | 18.69845 | -102.15649 | 33858 ft | 458 kts | 152° |
| 2026-05-08 00:52 | 18.64356 | -102.12219 | 33877 ft | 457 kts | 152° |
| 2026-05-08 00:52 | 18.58874 | -102.08798 | 33887 ft | 458 kts | 152° |
| 2026-05-08 00:53 | 18.53410 | -102.05389 | 33881 ft | 458 kts | 152° |
| 2026-05-08 00:53 | 18.47942 | -102.01980 | 33871 ft | 458 kts | 152° |
| 2026-05-08 00:54 | 18.42415 | -101.98538 | 33858 ft | 459 kts | 152° |
| 2026-05-08 00:54 | 18.36915 | -101.95115 | 33855 ft | 460 kts | 152° |
| 2026-05-08 00:55 | 18.31399 | -101.91685 | 33869 ft | 461 kts | 152° |
| 2026-05-08 00:55 | 18.25913 | -101.88277 | 33865 ft | 460 kts | 152° |
| 2026-05-08 00:56 | 18.20381 | -101.84844 | 33867 ft | 460 kts | 152° |
| 2026-05-08 00:56 | 18.14876 | -101.81431 | 33869 ft | 460 kts | 152° |
| 2026-05-08 00:57 | 18.09331 | -101.77994 | 33887 ft | 460 kts | 152° |
| 2026-05-08 00:57 | 18.03824 | -101.74583 | 33881 ft | 460 kts | 152° |
| 2026-05-08 00:58 | 17.98295 | -101.71160 | 33880 ft | 461 kts | 151° |
| 2026-05-08 00:58 | 17.92776 | -101.67745 | 33888 ft | 462 kts | 151° |
| 2026-05-08 00:59 | 17.87236 | -101.64320 | 33883 ft | 462 kts | 151° |
| 2026-05-08 00:59 | 17.81673 | -101.60883 | 33878 ft | 463 kts | 151° |
| 2026-05-08 01:00 | 17.76135 | -101.57462 | 33877 ft | 462 kts | 151° |
| 2026-05-08 01:00 | 17.70579 | -101.54034 | 33874 ft | 462 kts | 151° |
| 2026-05-08 01:01 | 17.65062 | -101.50585 | 33871 ft | 463 kts | 148° |
| 2026-05-08 01:01 | 17.60226 | -101.46159 | 33872 ft | 468 kts | 131° |
| 2026-05-08 01:02 | 17.56656 | -101.40440 | 33872 ft | 473 kts | 121° |
| 2026-05-08 01:02 | 17.53598 | -101.34302 | 33869 ft | 474 kts | 118° |
| 2026-05-08 01:03 | 17.50683 | -101.28127 | 33869 ft | 474 kts | 118° |
| 2026-05-08 01:03 | 17.47773 | -101.21980 | 33879 ft | 473 kts | 118° |
| 2026-05-08 01:04 | 17.44820 | -101.15822 | 33904 ft | 474 kts | 118° |
| 2026-05-08 01:04 | 17.41855 | -101.09696 | 33925 ft | 473 kts | 119° |
| 2026-05-08 01:05 | 17.38861 | -101.03539 | 33933 ft | 473 kts | 119° |
| 2026-05-08 01:05 | 17.37377 | -101.00491 | 33569 ft | 469 kts | 119° |
| 2026-05-08 01:05 | 17.35907 | -100.97474 | 33000 ft | 462 kts | 119° |
| 2026-05-08 01:05 | 17.34459 | -100.94501 | 32337 ft | 458 kts | 119° |
| 2026-05-08 01:06 | 17.33029 | -100.91571 | 31620 ft | 456 kts | 118° |
| 2026-05-08 01:06 | 17.31594 | -100.88633 | 30831 ft | 455 kts | 118° |
| 2026-05-08 01:06 | 17.30168 | -100.85714 | 30011 ft | 454 kts | 118° |
| 2026-05-08 01:06 | 17.28731 | -100.82776 | 29165 ft | 453 kts | 118° |
| 2026-05-08 01:07 | 17.27303 | -100.79856 | 28309 ft | 453 kts | 118° |
| 2026-05-08 01:07 | 17.25882 | -100.76953 | 27431 ft | 453 kts | 118° |
| 2026-05-08 01:07 | 17.24441 | -100.74010 | 26485 ft | 453 kts | 118° |
| 2026-05-08 01:07 | 17.23017 | -100.71104 | 25511 ft | 454 kts | 118° |
| 2026-05-08 01:08 | 17.21580 | -100.68169 | 24494 ft | 454 kts | 118° |
| 2026-05-08 01:08 | 17.20158 | -100.65266 | 23715 ft | 448 kts | 118° |
| 2026-05-08 01:08 | 17.18755 | -100.62401 | 23148 ft | 438 kts | 118° |
| 2026-05-08 01:08 | 17.17355 | -100.59543 | 22549 ft | 452 kts | 118° |
| 2026-05-08 01:09 | 17.15931 | -100.56642 | 21900 ft | 451 kts | 118° |
| 2026-05-08 01:09 | 17.14510 | -100.53745 | 21257 ft | 441 kts | 118° |
| 2026-05-08 01:09 | 17.13129 | -100.50927 | 20633 ft | 431 kts | 118° |
| 2026-05-08 01:09 | 17.11782 | -100.48182 | 19987 ft | 422 kts | 118° |
| 2026-05-08 01:10 | 17.10454 | -100.45476 | 19367 ft | 414 kts | 118° |
| 2026-05-08 01:10 | 17.09172 | -100.42866 | 18780 ft | 405 kts | 118° |
| 2026-05-08 01:10 | 17.07886 | -100.40251 | 18290 ft | 407 kts | 117° |
| 2026-05-08 01:10 | 17.06578 | -100.37595 | 17671 ft | 418 kts | 117° |
| 2026-05-08 01:11 | 17.05256 | -100.34907 | 17020 ft | 411 kts | 118° |
| 2026-05-08 01:11 | 17.03965 | -100.32283 | 16408 ft | 402 kts | 117° |
| 2026-05-08 01:11 | 17.02705 | -100.29724 | 15798 ft | 393 kts | 117° |
| 2026-05-08 01:11 | 17.01469 | -100.27213 | 15168 ft | 385 kts | 117° |
| 2026-05-08 01:12 | 17.00270 | -100.24778 | 14548 ft | 379 kts | 116° |
| 2026-05-08 01:12 | 16.99116 | -100.22221 | 13922 ft | 395 kts | 112° |
| 2026-05-08 01:12 | 16.98124 | -100.19553 | 13274 ft | 394 kts | 109° |
| 2026-05-08 01:12 | 16.97270 | -100.16894 | 12646 ft | 384 kts | 107° |
| 2026-05-08 01:13 | 16.96489 | -100.14273 | 12015 ft | 376 kts | 107° |
| 2026-05-08 01:13 | 16.95740 | -100.11709 | 11506 ft | 365 kts | 107° |
| 2026-05-08 01:13 | 16.95011 | -100.09232 | 11190 ft | 349 kts | 107° |
| 2026-05-08 01:13 | 16.94306 | -100.06879 | 11004 ft | 332 kts | 107° |
| 2026-05-08 01:14 | 16.93609 | -100.04594 | 10878 ft | 331 kts | 107° |
| 2026-05-08 01:14 | 16.92903 | -100.02302 | 10709 ft | 334 kts | 108° |
| 2026-05-08 01:14 | 16.92200 | -100.00040 | 10561 ft | 319 kts | 108° |
| 2026-05-08 01:14 | 16.91535 | -99.97907 | 10445 ft | 303 kts | 108° |
| 2026-05-08 01:15 | 16.90895 | -99.95856 | 10302 ft | 290 kts | 108° |
| 2026-05-08 01:15 | 16.90280 | -99.93883 | 10066 ft | 281 kts | 108° |
| 2026-05-08 01:15 | 16.89682 | -99.91965 | 9699 ft | 279 kts | 108° |
| 2026-05-08 01:15 | 16.89083 | -99.90044 | 9300 ft | 277 kts | 108° |
| 2026-05-08 01:16 | 16.88493 | -99.88152 | 8937 ft | 274 kts | 108° |
| 2026-05-08 01:16 | 16.87898 | -99.86245 | 8581 ft | 272 kts | 108° |
| 2026-05-08 01:16 | 16.87320 | -99.84391 | 8233 ft | 270 kts | 108° |
| 2026-05-08 01:16 | 16.86743 | -99.82546 | 7873 ft | 268 kts | 108° |
| 2026-05-08 01:17 | 16.86165 | -99.80696 | 7502 ft | 267 kts | 108° |
| 2026-05-08 01:17 | 16.85591 | -99.78860 | 7099 ft | 268 kts | 108° |
| 2026-05-08 01:17 | 16.85013 | -99.77012 | 6754 ft | 266 kts | 108° |
| 2026-05-08 01:17 | 16.84441 | -99.75185 | 6408 ft | 264 kts | 108° |
| 2026-05-08 01:18 | 16.83876 | -99.73381 | 6069 ft | 262 kts | 108° |
| 2026-05-08 01:18 | 16.83315 | -99.71588 | 5731 ft | 261 kts | 107° |
| 2026-05-08 01:18 | 16.82748 | -99.69780 | 5388 ft | 259 kts | 107° |
| 2026-05-08 01:18 | 16.82196 | -99.68016 | 5051 ft | 258 kts | 107° |
| 2026-05-08 01:19 | 16.81639 | -99.66240 | 4719 ft | 256 kts | 107° |
| 2026-05-08 01:19 | 16.81087 | -99.64477 | 4421 ft | 253 kts | 108° |
| 2026-05-08 01:19 | 16.80554 | -99.62776 | 4300 ft | 243 kts | 108° |
| 2026-05-08 01:19 | 16.80039 | -99.61138 | 4221 ft | 231 kts | 109° |
| 2026-05-08 01:20 | 16.79404 | -99.59624 | 4140 ft | 221 kts | 123° |
| 2026-05-08 01:20 | 16.78304 | -99.58591 | 4067 ft | 211 kts | 158° |
| 2026-05-08 01:20 | 16.76902 | -99.58378 | 3995 ft | 198 kts | 186° |
| 2026-05-08 01:20 | 16.75626 | -99.58696 | 3914 ft | 184 kts | 202° |
| 2026-05-08 01:21 | 16.74571 | -99.59397 | 3776 ft | 175 kts | 223° |
| 2026-05-08 01:21 | 16.73702 | -99.60263 | 3519 ft | 175 kts | 225° |
| 2026-05-08 01:21 | 16.72767 | -99.61156 | 3015 ft | 189 kts | 223° |
| 2026-05-08 01:21 | 16.71915 | -99.62228 | 2462 ft | 193 kts | 245° |
| 2026-05-08 01:22 | 16.71771 | -99.63542 | 2111 ft | 179 kts | 284° |
| 2026-05-08 01:22 | 16.72281 | -99.64648 | 1894 ft | 159 kts | 298° |
| 2026-05-08 01:22 | 16.72687 | -99.65697 | 1464 ft | 157 kts | 286° |
| 2026-05-08 01:22 | 16.72976 | -99.66760 | 1280 ft | 146 kts | 287° |
| 2026-05-08 01:23 | 16.73298 | -99.67760 | 1110 ft | 143 kts | 288° |
| 2026-05-08 01:23 | 16.73608 | -99.68726 | 933 ft | 141 kts | 286° |
| 2026-05-08 01:23 | 16.73910 | -99.69694 | 755 ft | 140 kts | 286° |
| 2026-05-08 01:23 | 16.74217 | -99.70659 | 572 ft | 140 kts | 286° |
| 2026-05-08 01:24 | 16.74520 | -99.71621 | 397 ft | 138 kts | 286° |
| 2026-05-08 01:24 | 16.74825 | -99.72559 | 230 ft | 136 kts | 287° |
| 2026-05-08 01:24 | 16.75117 | -99.73502 | 54 ft | 136 kts | 286° |
| 2026-05-08 01:24 | 16.75376 | -99.74335 | 26 ft | 85 kts | 287° |
| 2026-05-08 01:25 | 16.75515 | -99.74766 | 26 ft | 47 kts | 290° |
| 2026-05-08 01:25 | 16.75643 | -99.74992 | 26 ft | 34 kts | 315° |
| 2026-05-08 01:25 | 16.75787 | -99.75092 | 27 ft | 20 kts | 329° |
| 2026-05-08 01:25 | 16.75861 | -99.75229 | 27 ft | 23 kts | 289° |
| 2026-05-08 01:26 | 16.75931 | -99.75349 | 27 ft | 17 kts | 337° |
| 2026-05-08 01:26 | 16.76001 | -99.75454 | 27 ft | 19 kts | 288° |
| 2026-05-08 01:26 | 16.76035 | -99.75520 | 28 ft | 5 kts | 342° |
| 2026-05-08 01:26 | 16.76082 | -99.75507 | 28 ft | 8 kts | 21° |
| 2026-05-08 01:27 | 16.76111 | -99.75496 | 28 ft | 0 kts | 20° |